createdAt,value
2018-11-11T00:01:34.699Z,99.90
2018-11-11T00:04:05.692Z,99.90
2018-11-11T00:06:36.872Z,99.90
2018-11-11T00:09:10.271Z,99.90
2018-11-11T00:11:41.539Z,99.90
2018-11-11T00:14:12.755Z,99.90
2018-11-11T00:16:44.074Z,99.90
2018-11-11T00:19:15.345Z,99.90
2018-11-11T00:21:46.305Z,99.90
2018-11-11T00:24:17.222Z,99.90
2018-11-11T00:26:48.200Z,99.90
2018-11-11T00:29:19.464Z,99.90
2018-11-11T00:31:50.406Z,99.90
2018-11-11T00:34:21.320Z,99.90
2018-11-11T00:36:52.617Z,99.90
2018-11-11T00:39:23.984Z,99.90
2018-11-11T00:41:54.797Z,99.90
2018-11-11T00:44:26.030Z,99.90
2018-11-11T00:46:57.223Z,99.90
2018-11-11T00:49:28.462Z,99.90
2018-11-11T00:51:59.424Z,99.90
2018-11-11T00:54:30.320Z,99.90
2018-11-11T00:57:01.547Z,99.90
2018-11-11T00:59:33.016Z,99.90
2018-11-11T01:02:04.069Z,99.90
2018-11-11T01:04:35.355Z,99.90
2018-11-11T01:07:06.812Z,99.90
2018-11-11T01:09:37.782Z,99.90
2018-11-11T01:12:09.351Z,99.90
2018-11-11T01:14:40.459Z,99.90
2018-11-11T01:17:11.421Z,99.90
2018-11-11T01:19:42.633Z,99.90
2018-11-11T01:22:13.558Z,99.90
2018-11-11T01:24:44.448Z,99.90
2018-11-11T01:27:15.432Z,99.90
2018-11-11T01:29:46.618Z,99.90
2018-11-11T01:32:17.530Z,99.90
2018-11-11T01:34:48.722Z,99.90
2018-11-11T01:37:19.667Z,99.90
2018-11-11T01:39:50.528Z,99.90
2018-11-11T01:42:21.592Z,99.90
2018-11-11T01:44:52.707Z,99.90
2018-11-11T01:47:24.032Z,99.90
2018-11-11T01:49:55.719Z,99.90
2018-11-11T01:52:26.580Z,99.90
2018-11-11T01:54:57.591Z,99.90
2018-11-11T01:57:28.847Z,99.90
2018-11-11T01:59:59.884Z,99.90
2018-11-11T02:02:30.758Z,99.90
2018-11-11T02:05:01.925Z,99.90
2018-11-11T02:07:32.836Z,99.90
2018-11-11T02:10:03.742Z,99.90
2018-11-11T02:12:34.687Z,99.90
2018-11-11T02:15:05.696Z,99.90
2018-11-11T02:17:36.721Z,99.90
2018-11-11T02:20:21.847Z,99.90
2018-11-11T02:22:52.930Z,99.90
2018-11-11T02:25:23.936Z,99.90
2018-11-11T02:27:55.235Z,99.90
2018-11-11T02:30:26.171Z,99.90
2018-11-11T02:32:57.083Z,99.90
2018-11-11T02:35:27.978Z,99.90
2018-11-11T02:37:58.876Z,99.90
2018-11-11T02:40:29.822Z,99.90
2018-11-11T02:43:00.698Z,99.90
2018-11-11T02:45:31.981Z,99.90
2018-11-11T02:48:21.834Z,99.90
2018-11-11T02:50:52.692Z,99.90
2018-11-11T02:53:23.514Z,99.90
2018-11-11T02:55:54.610Z,99.90
2018-11-11T02:58:25.450Z,99.90
2018-11-11T03:00:56.574Z,99.90
2018-11-11T03:03:28.225Z,99.90
2018-11-11T03:05:59.159Z,99.90
2018-11-11T03:08:29.976Z,99.90
2018-11-11T03:11:00.878Z,99.90
2018-11-11T03:13:31.703Z,99.90
2018-11-11T03:16:02.607Z,99.90
2018-11-11T03:18:33.408Z,99.90
2018-11-11T03:21:04.220Z,99.90
2018-11-11T03:23:35.045Z,99.90
2018-11-11T03:26:06.060Z,99.90
2018-11-11T03:28:36.894Z,99.90
2018-11-11T03:31:07.724Z,99.90
2018-11-11T03:33:38.657Z,99.90
2018-11-11T03:36:09.513Z,99.90
2018-11-11T03:38:40.725Z,99.90
2018-11-11T03:41:11.546Z,99.90
2018-11-11T03:43:42.748Z,99.90
2018-11-11T03:46:13.580Z,99.90
2018-11-11T03:48:44.446Z,99.90
2018-11-11T03:51:15.358Z,99.90
2018-11-11T03:53:46.188Z,99.90
2018-11-11T03:56:17.015Z,99.90
2018-11-11T03:58:47.981Z,99.90
2018-11-11T04:01:18.792Z,99.90
2018-11-11T04:03:49.628Z,99.90
2018-11-11T04:06:20.454Z,99.90
2018-11-11T04:08:51.275Z,99.90
2018-11-11T04:11:22.113Z,99.90
2018-11-11T04:13:53.029Z,99.90
2018-11-11T04:16:23.850Z,99.90
2018-11-11T04:18:55.146Z,99.90
2018-11-11T04:21:26.248Z,99.90
2018-11-11T04:23:57.074Z,99.90
2018-11-11T04:26:28.196Z,99.90
2018-11-11T04:28:59.050Z,99.90
2018-11-11T04:31:29.923Z,99.90
2018-11-11T04:34:00.746Z,99.90
2018-11-11T04:36:32.139Z,99.90
2018-11-11T04:39:03.363Z,99.90
2018-11-11T04:41:34.151Z,99.90
2018-11-11T04:44:05.325Z,99.90
2018-11-11T04:46:36.428Z,99.90
2018-11-11T04:49:07.375Z,99.90
2018-11-11T04:51:38.132Z,99.90
2018-11-11T04:54:09.377Z,99.90
2018-11-11T04:56:40.251Z,99.90
2018-11-11T04:59:11.133Z,99.90
2018-11-11T05:01:42.050Z,99.90
2018-11-11T05:04:13.043Z,99.90
2018-11-11T05:06:43.919Z,99.90
2018-11-11T05:09:14.856Z,99.90
2018-11-11T05:11:45.702Z,99.90
2018-11-11T05:14:16.548Z,99.90
2018-11-11T05:16:47.771Z,99.90
2018-11-11T05:19:19.009Z,99.90
2018-11-11T05:21:50.252Z,99.90
2018-11-11T05:24:21.045Z,99.90
2018-11-11T05:26:51.884Z,99.90
2018-11-11T05:29:23.006Z,99.90
2018-11-11T05:31:54.172Z,99.90
2018-11-11T05:34:25.028Z,99.90
2018-11-11T05:36:55.858Z,99.90
2018-11-11T05:39:26.692Z,99.90
2018-11-11T05:41:57.513Z,99.90
2018-11-11T05:44:28.347Z,99.90
2018-11-11T05:46:59.433Z,99.90
2018-11-11T05:49:30.544Z,99.90
2018-11-11T05:52:01.391Z,99.90
2018-11-11T05:54:32.272Z,99.90
2018-11-11T05:57:03.094Z,99.90
2018-11-11T05:59:33.932Z,99.90
2018-11-11T06:02:04.779Z,99.90
2018-11-11T06:04:35.853Z,99.90
2018-11-11T06:07:07.008Z,99.90
2018-11-11T06:09:37.850Z,99.90
2018-11-11T06:12:08.807Z,99.90
2018-11-11T06:14:39.636Z,99.90
2018-11-11T06:17:10.496Z,99.90
2018-11-11T06:19:41.395Z,99.90
2018-11-11T06:22:12.299Z,99.90
2018-11-11T06:24:43.202Z,99.90
2018-11-11T06:27:14.046Z,99.90
2018-11-11T06:29:44.849Z,99.90
2018-11-11T06:32:16.357Z,99.90
2018-11-11T06:34:47.274Z,99.90
2018-11-11T06:37:18.088Z,99.90
2018-11-11T06:39:48.932Z,99.90
2018-11-11T06:42:19.742Z,99.90
2018-11-11T06:44:50.586Z,99.90
2018-11-11T06:47:21.749Z,99.90
2018-11-11T06:49:52.594Z,99.90
2018-11-11T06:52:23.410Z,99.90
2018-11-11T06:54:54.513Z,99.90
2018-11-11T06:57:25.347Z,99.90
2018-11-11T06:59:56.862Z,99.90
2018-11-11T07:02:39.963Z,99.90
2018-11-11T07:05:11.076Z,99.90
2018-11-11T07:07:41.887Z,99.90
2018-11-11T07:10:12.710Z,99.90
2018-11-11T07:12:43.558Z,99.90
2018-11-11T07:15:14.405Z,99.90
2018-11-11T07:17:45.229Z,99.90
2018-11-11T07:20:16.307Z,99.90
2018-11-11T07:22:47.151Z,99.90
2018-11-11T07:25:17.984Z,99.90
2018-11-11T07:27:48.817Z,99.90
2018-11-11T07:30:19.642Z,99.90
2018-11-11T07:32:50.474Z,99.90
2018-11-11T07:35:21.317Z,99.90
2018-11-11T07:37:52.277Z,99.90
2018-11-11T07:40:23.132Z,99.90
2018-11-11T07:42:53.974Z,99.90
2018-11-11T07:45:24.797Z,99.90
2018-11-11T07:47:55.687Z,99.90
2018-11-11T07:50:26.472Z,99.90
2018-11-11T07:52:57.324Z,99.90
2018-11-11T07:55:28.178Z,99.90
2018-11-11T07:58:01.909Z,99.90
2018-11-11T08:00:32.760Z,99.90
2018-11-11T08:03:03.913Z,99.90
2018-11-11T08:05:34.902Z,99.90
2018-11-11T08:08:05.730Z,99.90
2018-11-11T08:11:30.705Z,99.90
2018-11-11T08:14:01.597Z,99.90
2018-11-11T08:16:32.486Z,99.90
2018-11-11T08:19:03.350Z,99.90
2018-11-11T08:21:34.611Z,99.90
2018-11-11T08:24:06.124Z,99.90
2018-11-11T08:26:36.965Z,99.90
2018-11-11T08:29:07.882Z,99.90
2018-11-11T08:31:38.733Z,99.90
2018-11-11T08:34:09.571Z,99.90
2018-11-11T08:36:40.405Z,99.90
2018-11-11T08:39:13.243Z,99.90
2018-11-11T08:41:45.114Z,99.90
2018-11-11T08:44:15.972Z,99.90
2018-11-11T08:46:47.089Z,99.90
2018-11-11T08:49:17.946Z,99.90
2018-11-11T08:51:48.878Z,99.90
2018-11-11T08:54:19.806Z,99.90
2018-11-11T08:56:50.679Z,99.90
2018-11-11T08:59:21.589Z,99.90
2018-11-11T09:01:52.557Z,99.90
2018-11-11T09:04:23.484Z,99.90
2018-11-11T09:06:54.489Z,99.90
2018-11-11T09:09:25.504Z,99.90
2018-11-11T09:11:56.461Z,99.90
2018-11-11T09:14:27.341Z,99.90
2018-11-11T09:16:58.273Z,99.90
2018-11-11T09:19:29.444Z,99.90
2018-11-11T09:22:00.296Z,99.90
2018-11-11T09:24:31.181Z,99.90
2018-11-11T09:27:02.129Z,99.90
2018-11-11T09:29:33.147Z,99.90
2018-11-11T09:32:04.114Z,99.90
2018-11-11T09:34:35.358Z,99.90
2018-11-11T09:37:06.331Z,99.90
2018-11-11T09:39:37.208Z,99.90
2018-11-11T09:42:08.325Z,99.90
2018-11-11T09:44:39.264Z,99.90
2018-11-11T09:47:10.177Z,99.90
2018-11-11T09:49:41.085Z,99.90
2018-11-11T09:52:12.081Z,99.90
2018-11-11T09:54:43.014Z,99.90
2018-11-11T09:57:20.683Z,99.90
2018-11-11T09:59:51.707Z,99.90
2018-11-11T10:02:22.846Z,99.90
2018-11-11T10:05:06.355Z,99.90
2018-11-11T10:07:42.009Z,99.90
2018-11-11T10:10:34.238Z,99.90
2018-11-11T10:13:14.686Z,99.90
2018-11-11T10:16:04.195Z,99.90
2018-11-11T10:18:39.002Z,99.90
2018-11-11T10:21:37.142Z,99.90
2018-11-11T10:24:23.989Z,99.90
2018-11-11T10:26:58.827Z,99.90
2018-11-11T10:29:34.310Z,99.90
2018-11-11T10:33:21.252Z,99.90
2018-11-11T10:35:55.556Z,99.90
2018-11-11T10:38:54.083Z,99.90
2018-11-11T10:41:31.946Z,99.90
2018-11-11T10:44:15.893Z,99.90
2018-11-11T10:46:58.250Z,99.90
2018-11-11T10:49:32.022Z,99.90
2018-11-11T10:52:02.943Z,99.90
2018-11-11T10:54:33.922Z,99.90
2018-11-11T10:57:04.745Z,99.90
2018-11-11T10:59:35.666Z,99.90
2018-11-11T11:02:28.346Z,99.90
2018-11-11T11:05:12.386Z,99.90
2018-11-11T11:07:43.723Z,99.90
2018-11-11T11:10:14.618Z,99.90
2018-11-11T11:12:45.535Z,99.90
2018-11-11T11:15:16.645Z,99.90
2018-11-11T11:17:47.503Z,99.90
2018-11-11T11:20:18.398Z,99.90
2018-11-11T11:22:49.314Z,99.90
2018-11-11T11:25:20.172Z,99.90
2018-11-11T11:27:51.174Z,99.90
2018-11-11T11:30:22.147Z,99.90
2018-11-11T11:32:53.095Z,99.90
2018-11-11T11:35:24.026Z,99.90
2018-11-11T11:37:54.939Z,99.90
2018-11-11T11:40:25.909Z,99.90
2018-11-11T11:42:57.155Z,99.90
2018-11-11T11:45:28.105Z,99.90
2018-11-11T11:47:59.018Z,99.90
2018-11-11T11:50:30.434Z,99.90
2018-11-11T11:53:01.306Z,99.90
2018-11-11T11:55:32.580Z,99.90
2018-11-11T11:58:22.947Z,99.90
2018-11-11T12:00:54.193Z,99.90
2018-11-11T12:03:25.218Z,99.90
2018-11-11T12:05:56.117Z,99.90
2018-11-11T12:08:27.047Z,99.90
2018-11-11T12:10:57.976Z,99.90
2018-11-11T12:13:28.933Z,99.90
2018-11-11T12:15:59.835Z,99.90
2018-11-11T12:18:30.777Z,99.90
2018-11-11T12:21:01.711Z,99.90
2018-11-11T12:23:32.889Z,99.50
2018-11-11T12:26:03.796Z,97.40
2018-11-11T12:28:34.797Z,98.10
2018-11-11T12:31:05.788Z,97.80
2018-11-11T12:33:36.660Z,97.90
2018-11-11T12:36:08.222Z,97.40
2018-11-11T12:38:39.208Z,97.30
2018-11-11T12:41:10.139Z,98.10
2018-11-11T12:43:41.012Z,98.60
2018-11-11T12:46:11.890Z,99.70
2018-11-11T12:48:42.793Z,99.90
2018-11-11T12:51:13.726Z,99.80
2018-11-11T12:53:44.612Z,98.90
2018-11-11T12:56:15.878Z,98.00
2018-11-11T12:58:46.755Z,97.10
2018-11-11T13:01:17.745Z,97.50
2018-11-11T13:03:48.909Z,97.80
2018-11-11T13:06:19.794Z,98.00
2018-11-11T13:08:50.785Z,98.10
2018-11-11T13:11:21.785Z,98.40
2018-11-11T13:13:54.945Z,98.80
2018-11-11T13:16:25.859Z,97.70
2018-11-11T13:18:56.878Z,95.40
2018-11-11T13:21:28.623Z,93.90
2018-11-11T13:23:59.588Z,94.00
2018-11-11T13:26:30.544Z,94.40
2018-11-11T13:29:01.467Z,94.20
2018-11-11T13:31:32.454Z,94.00
2018-11-11T13:34:03.404Z,95.20
2018-11-11T13:36:34.348Z,95.30
2018-11-11T13:39:07.535Z,96.30
2018-11-11T13:41:38.535Z,97.50
2018-11-11T13:44:10.038Z,98.60
2018-11-11T13:46:41.337Z,99.40
2018-11-11T13:49:12.259Z,99.70
2018-11-11T13:51:43.490Z,99.90
2018-11-11T13:54:14.375Z,99.90
2018-11-11T13:56:45.352Z,99.90
2018-11-11T13:59:17.322Z,99.90
2018-11-11T14:01:48.304Z,99.90
2018-11-11T14:04:19.173Z,99.90
2018-11-11T14:06:50.139Z,99.50
2018-11-11T14:09:21.034Z,98.90
2018-11-11T14:11:51.931Z,97.40
2018-11-11T14:14:22.929Z,96.80
2018-11-11T14:16:54.254Z,97.20
2018-11-11T14:19:25.307Z,98.00
2018-11-11T14:21:56.153Z,98.90
2018-11-11T14:24:27.133Z,99.60
2018-11-11T14:26:58.847Z,99.90
2018-11-11T14:29:29.621Z,99.90
2018-11-11T14:32:00.556Z,99.90
2018-11-11T14:34:31.600Z,99.90
2018-11-11T14:37:02.774Z,99.90
2018-11-11T14:39:33.790Z,99.90
2018-11-11T14:42:04.867Z,99.90
2018-11-11T14:44:35.742Z,99.90
2018-11-11T14:47:06.821Z,99.90
2018-11-11T14:49:37.779Z,99.50
2018-11-11T14:52:08.896Z,99.10
2018-11-11T14:54:39.800Z,99.60
2018-11-11T14:57:10.642Z,99.90
2018-11-11T14:59:41.867Z,99.90
2018-11-11T15:02:12.783Z,99.90
2018-11-11T15:04:43.720Z,99.90
2018-11-11T15:07:14.737Z,99.90
2018-11-11T15:09:45.924Z,99.90
2018-11-11T15:12:16.912Z,99.90
2018-11-11T15:14:47.992Z,99.90
2018-11-11T15:17:18.989Z,99.90
2018-11-11T15:19:49.992Z,99.90
2018-11-11T15:22:21.013Z,99.90
2018-11-11T15:24:52.018Z,99.90
2018-11-11T15:27:23.201Z,99.90
2018-11-11T15:29:54.180Z,99.90
2018-11-11T15:32:25.165Z,99.90
2018-11-11T15:34:56.002Z,99.90
2018-11-11T15:37:27.568Z,99.90
2018-11-11T15:39:58.481Z,99.90
2018-11-11T15:42:29.684Z,99.90
2018-11-11T15:45:00.607Z,99.90
2018-11-11T15:47:31.573Z,99.90
2018-11-11T15:50:02.611Z,99.90
2018-11-11T15:52:33.626Z,99.90
2018-11-11T15:55:04.560Z,99.90
2018-11-11T15:57:35.523Z,99.90
2018-11-11T16:00:08.833Z,99.90
2018-11-11T16:02:40.301Z,99.90
2018-11-11T16:05:12.245Z,99.90
2018-11-11T16:07:43.845Z,99.90
2018-11-11T16:10:16.610Z,99.90
2018-11-11T16:12:47.765Z,99.90
2018-11-11T16:15:21.709Z,99.90
2018-11-11T16:17:54.040Z,99.90
2018-11-11T16:20:26.174Z,99.90
2018-11-11T16:22:58.081Z,99.90
2018-11-11T16:25:29.620Z,99.90
2018-11-11T16:28:00.459Z,99.90
2018-11-11T16:30:32.592Z,99.90
2018-11-11T16:33:03.905Z,99.90
2018-11-11T16:35:34.964Z,99.90
2018-11-11T16:38:06.401Z,99.90
2018-11-11T16:40:38.185Z,99.90
2018-11-11T16:43:09.118Z,99.90
2018-11-11T16:45:40.043Z,99.90
2018-11-11T16:48:10.978Z,99.90
2018-11-11T16:50:42.342Z,99.90
2018-11-11T16:53:13.431Z,99.90
2018-11-11T16:55:44.267Z,99.90
2018-11-11T16:58:15.186Z,99.90
2018-11-11T17:00:46.127Z,99.90
2018-11-11T17:03:17.052Z,99.90
2018-11-11T17:05:47.955Z,99.90
2018-11-11T17:08:18.854Z,99.90
2018-11-11T17:10:49.797Z,99.90
2018-11-11T17:13:21.339Z,99.90
2018-11-11T17:15:52.174Z,99.90
2018-11-11T17:18:23.507Z,99.90
2018-11-11T17:20:54.929Z,99.90
2018-11-11T17:23:25.812Z,99.90
2018-11-11T17:25:56.758Z,99.90
2018-11-11T17:28:28.017Z,99.90
2018-11-11T17:30:59.113Z,99.90
2018-11-11T17:33:30.020Z,99.90
2018-11-11T17:36:00.958Z,99.90
2018-11-11T17:38:32.483Z,99.90
2018-11-11T17:41:03.377Z,99.90
2018-11-11T17:43:34.253Z,99.90
2018-11-11T17:46:05.149Z,99.90
2018-11-11T17:48:36.410Z,99.90
2018-11-11T17:51:07.359Z,99.90
2018-11-11T17:53:38.190Z,99.90
2018-11-11T17:56:09.459Z,99.90
2018-11-11T17:58:40.662Z,99.90
2018-11-11T18:01:11.587Z,99.90
2018-11-11T18:03:42.579Z,99.90
2018-11-11T18:06:13.576Z,99.90
2018-11-11T18:08:44.467Z,99.90
2018-11-11T18:11:16.008Z,99.90
2018-11-11T18:13:46.832Z,99.90
2018-11-11T18:16:17.758Z,99.90
2018-11-11T18:18:49.019Z,99.90
2018-11-11T18:21:19.929Z,99.90
2018-11-11T18:23:51.060Z,99.90
2018-11-11T18:26:22.358Z,99.90
2018-11-11T18:28:53.214Z,99.90
2018-11-11T18:31:24.149Z,99.90
2018-11-11T18:33:55.310Z,99.90
2018-11-11T18:36:26.930Z,99.90
2018-11-11T18:38:58.084Z,99.90
2018-11-11T18:41:28.970Z,99.90
2018-11-11T18:43:59.843Z,99.90
2018-11-11T18:46:31.184Z,99.90
2018-11-11T18:49:02.094Z,99.90
2018-11-11T18:51:33.011Z,99.90
2018-11-11T18:54:03.880Z,99.90
2018-11-11T18:56:34.734Z,99.90
2018-11-11T18:59:06.208Z,99.90
2018-11-11T19:01:37.508Z,99.90
2018-11-11T19:04:08.631Z,99.90
2018-11-11T19:06:39.648Z,99.90
2018-11-11T19:09:14.139Z,99.90
2018-11-11T19:11:45.035Z,99.90
2018-11-11T19:14:15.933Z,99.90
2018-11-11T19:16:46.945Z,99.90
2018-11-11T19:19:17.811Z,99.90
2018-11-11T19:21:48.626Z,99.90
2018-11-11T19:24:19.530Z,99.90
2018-11-11T19:26:50.417Z,99.90
2018-11-11T19:29:21.315Z,99.90
2018-11-11T19:31:52.278Z,99.90
2018-11-11T19:34:23.196Z,99.90
2018-11-11T19:36:54.132Z,99.90
2018-11-11T19:39:25.028Z,99.90
2018-11-11T19:41:56.333Z,99.90
2018-11-11T19:44:27.243Z,99.90
2018-11-11T19:46:58.207Z,99.90
2018-11-11T19:49:29.390Z,99.90
2018-11-11T19:52:00.357Z,99.90
2018-11-11T19:54:31.307Z,99.90
2018-11-11T19:57:02.746Z,99.90
2018-11-11T19:59:33.603Z,99.90
2018-11-11T20:02:04.482Z,99.90
2018-11-11T20:04:35.355Z,99.90
2018-11-11T20:07:06.369Z,99.90
2018-11-11T20:09:37.248Z,99.90
2018-11-11T20:12:08.244Z,99.90
2018-11-11T20:14:39.520Z,99.90
2018-11-11T20:17:10.435Z,99.90
2018-11-11T20:19:41.367Z,99.90
2018-11-11T20:22:12.201Z,99.90
2018-11-11T20:24:43.425Z,99.90
2018-11-11T20:27:14.394Z,99.90
2018-11-11T20:29:45.863Z,99.90
2018-11-11T20:32:17.126Z,99.90
2018-11-11T20:34:48.053Z,99.90
2018-11-11T20:37:19.093Z,99.90
2018-11-11T20:39:50.199Z,99.90
2018-11-11T20:42:21.095Z,99.90
2018-11-11T20:44:52.249Z,99.90
2018-11-11T20:47:24.098Z,99.90
2018-11-11T20:49:55.177Z,99.90
2018-11-11T20:52:26.332Z,99.90
2018-11-11T20:54:57.216Z,99.90
2018-11-11T20:57:28.192Z,99.90
2018-11-11T20:59:59.332Z,99.90
2018-11-11T21:02:30.207Z,99.90
2018-11-11T21:05:01.107Z,99.90
2018-11-11T21:07:32.068Z,99.90
2018-11-11T21:10:02.929Z,99.90
2018-11-11T21:12:33.820Z,99.90
2018-11-11T21:15:04.819Z,99.90
2018-11-11T21:17:35.753Z,99.90
2018-11-11T21:20:08.474Z,99.90
2018-11-11T21:22:39.490Z,99.90
2018-11-11T21:25:10.669Z,99.90
2018-11-11T21:27:42.478Z,99.90
2018-11-11T21:30:35.169Z,99.90
2018-11-11T21:33:06.082Z,99.90
2018-11-11T21:35:37.394Z,99.90
2018-11-11T21:38:08.615Z,99.90
2018-11-11T21:40:39.592Z,99.90
2018-11-11T21:43:10.502Z,99.90
2018-11-11T21:45:41.435Z,99.90
2018-11-11T21:48:12.326Z,99.90
2018-11-11T21:50:43.246Z,99.90
2018-11-11T21:53:34.380Z,99.90
2018-11-11T21:56:05.471Z,99.90
2018-11-11T21:58:36.660Z,99.90
2018-11-11T22:01:07.972Z,99.90
2018-11-11T22:03:39.350Z,99.90
2018-11-11T22:06:10.369Z,99.90
2018-11-11T22:08:41.298Z,99.90
2018-11-11T22:11:12.217Z,99.90
2018-11-11T22:13:43.117Z,99.90
2018-11-11T22:16:14.365Z,99.90
2018-11-11T22:18:45.334Z,99.90
2018-11-11T22:21:16.209Z,99.90
2018-11-11T22:23:47.165Z,99.90
2018-11-11T22:26:18.038Z,99.90
2018-11-11T22:28:48.932Z,99.90
2018-11-11T22:31:19.787Z,99.90
2018-11-11T22:33:50.950Z,99.90
2018-11-11T22:36:22.769Z,99.90
2018-11-11T22:38:54.045Z,99.90
2018-11-11T22:41:24.905Z,99.90
2018-11-11T22:43:55.997Z,99.90
2018-11-11T22:46:27.484Z,99.90
2018-11-11T22:48:59.017Z,99.90
2018-11-11T22:51:29.877Z,99.90
2018-11-11T22:54:00.754Z,99.90
2018-11-11T22:56:31.659Z,99.90
2018-11-11T22:59:02.906Z,99.90
2018-11-11T23:01:33.831Z,99.90
2018-11-11T23:04:04.686Z,99.90
2018-11-11T23:06:35.633Z,99.90
2018-11-11T23:09:09.875Z,99.90
2018-11-11T23:11:40.999Z,99.90
2018-11-11T23:14:11.877Z,99.90
2018-11-11T23:16:42.832Z,99.90
2018-11-11T23:19:13.716Z,99.90
2018-11-11T23:21:44.629Z,99.90
2018-11-11T23:24:15.581Z,99.90
2018-11-11T23:26:46.763Z,99.90
2018-11-11T23:29:17.685Z,99.90
2018-11-11T23:31:48.574Z,99.90
2018-11-11T23:34:19.758Z,99.90
2018-11-11T23:36:50.636Z,99.90
2018-11-11T23:39:21.495Z,99.90
2018-11-11T23:41:52.384Z,99.90
2018-11-11T23:44:23.342Z,99.90
2018-11-11T23:46:54.536Z,99.90
2018-11-11T23:49:25.509Z,99.90
2018-11-11T23:51:56.393Z,99.90
2018-11-11T23:54:27.523Z,99.90
2018-11-11T23:56:58.480Z,99.90
2018-11-11T23:59:29.580Z,99.90
